Time;durP1;ratioP1;P1;durP2;ratioP2;P2;SDS_P1;SDS_P2;PMS_P1;PMS_P2;Temp;Humidity;BMP_temperature;BMP_pressure;BME280_temperature;BME280_humidity;BME280_pressure;Samples;Min_cycle;Max_cycle;Signal;HPM_P1;HPM_P2
2023/02/15 00:00:24;;;;;;;128.53;35.30;;;;;;;2.43;100.00;102584.22;7396559;19;20407;-52
2023/02/15 00:02:58;;;;;;;209.73;41.60;;;;;;;2.48;100.00;102586.34;7392926;19;20435;-57
2023/02/15 00:05:29;;;;;;;109.97;36.07;;;;;;;2.39;100.00;102594.84;7395478;19;20406;-56
2023/02/15 00:07:58;;;;;;;218.27;41.00;;;;;;;2.41;100.00;102580.63;7389735;19;20422;-60
2023/02/15 00:10:28;;;;;;;164.10;38.00;;;;;;;2.54;100.00;102587.00;7391011;19;20623;-51
2023/02/15 00:12:57;;;;;;;166.73;39.77;;;;;;;2.56;100.00;102586.41;7389349;19;20407;-57
2023/02/15 00:15:26;;;;;;;136.37;37.33;;;;;;;2.81;100.00;102582.91;7391579;19;20391;-58
2023/02/15 00:17:59;;;;;;;159.40;39.87;;;;;;;3.04;100.00;102577.66;7389694;19;20414;-56
2023/02/15 00:20:28;;;;;;;110.27;36.77;;;;;;;3.20;100.00;102575.00;7389497;19;20379;-59
2023/02/15 00:22:58;;;;;;;179.13;40.27;;;;;;;3.13;100.00;102576.75;7389493;19;20421;-56
2023/02/15 00:25:27;;;;;;;135.67;39.00;;;;;;;2.98;100.00;102574.47;7392273;19;20387;-58
2023/02/15 00:27:57;;;;;;;145.67;39.30;;;;;;;3.24;100.00;102566.00;7389330;19;20423;-57
2023/02/15 00:30:26;;;;;;;300.67;49.03;;;;;;;2.95;100.00;102581.78;7391563;19;20388;-54
2023/02/15 00:32:58;;;;;;;170.07;42.33;;;;;;;3.02;100.00;102568.03;7389632;19;20422;-55
2023/02/15 00:35:28;;;;;;;269.70;49.90;;;;;;;2.97;100.00;102572.63;7392026;19;20384;-54
2023/02/15 00:37:58;;;;;;;162.13;40.73;;;;;;;3.19;100.00;102565.50;7384744;19;20411;-57
2023/02/15 00:40:28;;;;;;;129.63;40.50;;;;;;;3.51;100.00;102564.41;7389752;19;20926;-57
2023/02/15 00:42:58;;;;;;;309.97;50.73;;;;;;;3.38;100.00;102565.72;7388748;19;20435;-55
2023/02/15 00:45:27;;;;;;;265.90;43.43;;;;;;;3.33;100.00;102564.34;7391945;19;20399;-56
2023/02/15 00:47:59;;;;;;;149.33;41.70;;;;;;;3.36;100.00;102562.13;7388281;19;20536;-58
2023/02/15 00:50:29;;;;;;;173.57;42.33;;;;;;;3.60;100.00;102561.84;7390092;19;20388;-59
2023/02/15 00:52:58;;;;;;;149.50;39.57;;;;;;;3.34;100.00;102557.63;7388603;19;20411;-54
2023/02/15 00:55:28;;;;;;;181.90;40.57;;;;;;;3.47;100.00;102560.63;7391829;19;20388;-55
2023/02/15 00:57:57;;;;;;;297.07;48.13;;;;;;;3.46;100.00;102563.94;7389921;19;20765;-59
2023/02/15 01:00:27;;;;;;;264.33;44.63;;;;;;;3.31;100.00;102568.41;7390391;19;20388;-53
2023/02/15 01:02:56;;;;;;;141.37;40.07;;;;;;;3.33;100.00;102572.00;7389196;19;20813;-53
2023/02/15 01:05:29;;;;;;;179.63;41.40;;;;;;;3.30;100.00;102576.81;7392020;19;20388;-57
2023/02/15 01:07:58;;;;;;;202.17;44.37;;;;;;;3.83;100.00;102556.47;7389803;19;20411;-57
2023/02/15 01:10:29;;;;;;;169.77;40.70;;;;;;;3.51;100.00;102564.41;7391281;19;20388;-56
2023/02/15 01:12:59;;;;;;;135.90;39.73;;;;;;;3.32;100.00;102554.00;7388730;19;20411;-55
2023/02/15 01:15:28;;;;;;;176.03;41.70;;;;;;;3.33;100.00;102550.72;7392390;19;20499;-57
2023/02/15 01:17:58;;;;;;;188.33;42.07;;;;;;;3.46;100.00;102557.94;7390902;19;20443;-60
2023/02/15 01:20:31;;;;;;;135.87;38.20;;;;;;;3.17;100.00;102561.03;7390339;19;20424;-56
2023/02/15 01:23:00;;;;;;;129.40;36.27;;;;;;;3.18;100.00;102548.41;7389621;19;20395;-55
2023/02/15 01:25:30;;;;;;;214.73;41.50;;;;;;;3.12;100.00;102549.47;7391962;19;20955;-57
2023/02/15 01:27:59;;;;;;;128.30;36.27;;;;;;;3.20;100.00;102549.47;7388874;19;20431;-57
2023/02/15 01:30:29;;;;;;;146.00;38.13;;;;;;;3.46;100.00;102542.59;7390582;19;20383;-57
2023/02/15 01:33:00;;;;;;;108.47;35.93;;;;;;;3.26;100.00;102543.16;7388864;19;20430;-58
2023/02/15 01:35:32;;;;;;;137.90;36.60;;;;;;;3.63;100.00;102527.31;7391295;19;20412;-55
2023/02/15 01:38:02;;;;;;;110.20;36.93;;;;;;;3.61;100.00;102527.91;7388826;19;20439;-56
2023/02/15 01:40:31;;;;;;;139.53;36.83;;;;;;;3.59;100.00;102525.19;7389383;19;20407;-55
2023/02/15 01:43:00;;;;;;;358.70;43.93;;;;;;;3.56;100.00;102519.81;7388993;19;20978;-55
2023/02/15 01:45:32;;;;;;;221.33;38.10;;;;;;;3.03;100.00;102529.91;7391460;19;20922;-59
2023/02/15 01:48:04;;;;;;;146.87;40.77;;;;;;;3.41;100.00;102528.50;7388511;19;20423;-55
2023/02/15 01:50:39;;;;;;;199.17;41.10;;;;;;;3.19;100.00;102524.69;7389874;19;21020;-55
2023/02/15 01:53:11;;;;;;;98.50;35.43;;;;;;;3.59;100.00;102522.66;7388200;19;21095;-59
2023/02/15 01:55:42;;;;;;;120.67;36.00;;;;;;;3.69;100.00;102521.00;7390843;19;20392;-58
2023/02/15 01:58:12;;;;;;;255.37;43.70;;;;;;;3.76;100.00;102514.09;7388488;19;20415;-54
2023/02/15 02:00:41;;;;;;;154.87;35.60;;;;;;;3.80;100.00;102511.84;7389708;19;20794;-52
2023/02/15 02:03:11;;;;;;;137.60;36.00;;;;;;;3.68;100.00;102494.56;7388213;19;20447;-58
2023/02/15 02:05:43;;;;;;;332.03;44.13;;;;;;;3.48;100.00;102495.16;7391619;19;20388;-53
2023/02/15 02:08:13;;;;;;;190.47;35.80;;;;;;;3.33;100.00;102494.56;7388230;19;20423;-57
2023/02/15 02:10:42;;;;;;;143.63;35.27;;;;;;;3.20;100.00;102501.00;7389781;19;20395;-56
2023/02/15 02:13:12;;;;;;;131.40;34.97;;;;;;;3.03;100.00;102490.75;7390651;19;20432;-52
2023/02/15 02:15:46;;;;;;;446.57;50.60;;;;;;;3.37;100.00;102489.91;7391442;19;20746;-53
2023/02/15 02:18:24;;;;;;;222.83;37.80;;;;;;;3.26;100.00;102493.06;7387870;19;20422;-54
2023/02/15 02:21:26;;;;;;;;;;;;;;;;;;;;;
2023/02/15 02:24:09;;;;;;;157.57;36.93;;;;;;;3.45;100.00;102480.47;7386558;19;20970;-53
2023/02/15 02:27:00;;;;;;;137.77;35.37;;;;;;;3.18;100.00;102486.28;7394098;19;20411;-55
2023/02/15 02:29:43;;;;;;;108.53;35.30;;;;;;;3.47;100.00;102473.84;7393183;19;20463;-58
2023/02/15 02:32:41;;;;;;;125.97;37.20;;;;;;;3.60;100.00;102459.75;7389092;19;20411;-51
2023/02/15 02:35:18;;;;;;;138.53;35.93;;;;;;;3.42;100.00;102463.94;7390478;19;20399;-54
2023/02/15 02:37:52;;;;;;;110.80;33.47;;;;;;;3.54;100.00;102454.94;7390630;19;20759;-58
2023/02/15 02:40:27;;;;;;;154.33;35.77;;;;;;;3.57;100.00;102447.59;7387225;19;20427;-57
2023/02/15 02:43:00;;;;;;;116.50;35.70;;;;;;;3.95;100.00;102446.03;7388886;19;20446;-55
2023/02/15 02:45:34;;;;;;;127.13;36.40;;;;;;;3.81;100.00;102435.41;7393750;19;20419;-58
2023/02/15 02:48:06;;;;;;;121.77;35.90;;;;;;;3.78;100.00;102441.09;7388964;19;20450;-55
2023/02/15 02:50:41;;;;;;;119.70;34.70;;;;;;;3.79;100.00;102436.88;7392749;19;20410;-54
2023/02/15 02:53:12;;;;;;;130.03;35.57;;;;;;;4.04;100.00;102444.34;7388920;19;20438;-58
2023/02/15 02:55:44;;;;;;;248.77;36.90;;;;;;;3.46;100.00;102449.09;7393042;19;20427;-55
2023/02/15 02:58:17;;;;;;;155.27;38.10;;;;;;;3.66;100.00;102437.38;7388831;19;20783;-54
2023/02/15 03:00:50;;;;;;;162.70;48.50;;;;;;;3.90;100.00;102436.25;7390819;19;20392;-57
2023/02/15 03:03:23;;;;;;;120.13;34.30;;;;;;;3.57;100.00;102445.03;7389340;19;20423;-59
2023/02/15 03:05:58;;;;;;;137.40;34.90;;;;;;;3.47;100.00;102429.56;7394251;19;20399;-57
2023/02/15 03:08:32;;;;;;;108.67;35.37;;;;;;;3.53;100.00;102427.59;7389374;19;20443;-54
2023/02/15 03:11:03;;;;;;;121.77;34.97;;;;;;;3.89;100.00;102434.47;7391493;19;20450;-57
2023/02/15 03:13:32;;;;;;;181.83;35.33;;;;;;;3.87;100.00;102429.97;7389099;19;20435;-60
2023/02/15 03:18:52;;;;;;;129.77;34.23;;;;;;;3.92;100.00;102426.19;7388068;19;20798;-57
2023/02/15 03:21:28;;;;;;;109.33;34.70;;;;;;;3.98;100.00;102415.66;7391922;19;20444;-55
2023/02/15 03:24:03;;;;;;;165.40;35.97;;;;;;;3.52;100.00;102420.69;7389595;19;20443;-58
2023/02/15 03:26:33;;;;;;;157.90;36.43;;;;;;;3.44;100.00;102421.63;7392719;19;20403;-60
2023/02/15 03:29:02;;;;;;;201.13;37.67;;;;;;;3.63;100.00;102422.66;7388832;19;21015;-54
2023/02/15 03:31:35;;;;;;;145.67;33.97;;;;;;;3.61;100.00;102413.94;7391674;19;20446;-58
2023/02/15 03:34:07;;;;;;;196.60;35.93;;;;;;;3.37;100.00;102415.91;7389070;19;20818;-57
2023/02/15 03:36:44;;;;;;;138.73;36.40;;;;;;;3.59;100.00;102407.78;7392294;19;20403;-56
2023/02/15 03:39:19;;;;;;;168.10;36.87;;;;;;;3.83;100.00;102405.78;7390356;19;20538;-57
2023/02/15 03:41:55;;;;;;;134.20;37.97;;;;;;;3.85;100.00;102401.72;7388912;19;20831;-60
2023/02/15 03:44:30;;;;;;;124.87;37.73;;;;;;;3.88;100.00;102401.13;7390764;19;20402;-57
2023/02/15 03:47:04;;;;;;;143.87;39.80;;;;;;;3.50;100.00;102406.91;7389090;19;21031;-55
2023/02/15 03:49:39;;;;;;;148.87;37.97;;;;;;;3.56;100.00;102407.50;7391620;19;20399;-59
2023/02/15 03:52:13;;;;;;;143.60;37.90;;;;;;;3.78;100.00;102410.47;7386399;19;20414;-58
2023/02/15 03:54:46;;;;;;;106.10;34.13;;;;;;;3.61;100.00;102411.41;7392147;19;20403;-58
2023/02/15 04:02:55;;;;;;;162.67;33.93;;;;;;;3.43;100.00;102405.41;7386829;19;20427;-58
2023/02/15 04:05:25;;;;;;;221.67;36.57;;;;;;;3.25;100.00;102401.97;7391825;19;20403;-58
2023/02/15 04:07:57;;;;;;;211.03;39.20;;;;;;;3.35;100.00;102396.09;7385996;19;20419;-53
2023/02/15 04:13:08;;;;;;;135.03;34.03;;;;;;;3.60;100.00;102399.38;7391081;19;20439;-57
2023/02/15 04:18:19;;;;;;;103.93;33.57;;;;;;;3.75;100.00;102399.06;7393503;19;20990;-57
2023/02/15 04:26:17;;;;;;;114.43;33.43;;;;;;;3.46;100.00;102402.25;7398088;19;20403;-58
2023/02/15 04:28:46;;;;;;;101.53;30.53;;;;;;;3.54;100.00;102382.56;7393599;19;20475;-57
2023/02/15 04:31:15;;;;;;;199.90;35.97;;;;;;;3.44;100.00;102391.88;7396382;19;20427;-60
2023/02/15 04:33:45;;;;;;;91.20;32.27;;;;;;;3.41;100.00;102390.69;7394135;19;20426;-54
2023/02/15 04:36:15;;;;;;;135.40;31.77;;;;;;;3.26;100.00;102391.00;7397728;19;20388;-55
2023/02/15 04:38:47;;;;;;;122.03;34.80;;;;;;;3.17;100.00;102387.56;7393785;19;20451;-62
2023/02/15 04:41:16;;;;;;;84.07;31.03;;;;;;;3.51;100.00;102388.28;7396128;19;20438;-56
2023/02/15 04:43:45;;;;;;;116.93;32.80;;;;;;;3.32;100.00;102388.13;7393932;19;20503;-57
2023/02/15 04:46:15;;;;;;;94.07;30.60;;;;;;;3.01;100.00;102383.50;7397474;19;20399;-54
2023/02/15 04:48:44;;;;;;;95.37;30.60;;;;;;;2.79;100.00;102383.94;7393229;19;20435;-61
2023/02/15 04:51:14;;;;;;;83.47;28.90;;;;;;;2.65;100.00;102387.66;7396437;19;20455;-56
2023/02/15 04:53:43;;;;;;;95.30;29.90;;;;;;;2.56;100.00;102390.16;7393682;19;20406;-52
2023/02/15 04:56:15;;;;;;;94.27;28.73;;;;;;;2.47;100.00;102389.25;7397012;19;20404;-58
2023/02/15 04:58:45;;;;;;;113.17;31.43;;;;;;;2.45;100.00;102393.28;7392451;19;20442;-60
2023/02/15 05:01:14;;;;;;;96.93;31.37;;;;;;;2.42;100.00;102398.06;7395984;19;20439;-52
2023/02/15 05:03:44;;;;;;;89.17;31.97;;;;;;;2.46;100.00;102386.53;7392444;19;20986;-51
2023/02/15 05:06:13;;;;;;;91.67;29.60;;;;;;;2.48;100.00;102385.97;7397078;19;20419;-56
2023/02/15 05:08:43;;;;;;;118.17;31.77;;;;;;;2.52;100.00;102369.31;7392647;19;20443;-56
2023/02/15 05:11:15;;;;;;;86.87;29.87;;;;;;;2.58;100.00;102364.84;7395651;19;20471;-51
2023/02/15 05:13:44;;;;;;;95.23;30.67;;;;;;;2.37;100.00;102364.47;7393006;19;20813;-53
2023/02/15 05:16:13;;;;;;;84.83;29.17;;;;;;;2.34;100.00;102355.63;7396414;19;20431;-52
2023/02/15 05:18:43;;;;;;;94.53;28.73;;;;;;;2.38;100.00;102351.00;7392351;19;20451;-56
2023/02/15 05:21:13;;;;;;;84.63;29.53;;;;;;;2.44;100.00;102350.72;7395950;19;20443;-52
2023/02/15 05:23:42;;;;;;;118.20;30.50;;;;;;;2.45;100.00;102354.19;7390873;19;20448;-51
2023/02/15 05:28:57;;;;;;;101.40;30.37;;;;;;;2.83;100.00;102347.78;7392513;19;20454;-54
2023/02/15 05:31:27;;;;;;;94.30;30.17;;;;;;;3.07;100.00;102345.84;7395204;19;20455;-57
2023/02/15 05:33:57;;;;;;;106.63;32.77;;;;;;;2.88;100.00;102335.50;7392508;19;20481;-56
2023/02/15 05:36:28;;;;;;;117.17;30.40;;;;;;;2.88;100.00;102329.50;7396058;19;20412;-53
2023/02/15 05:38:57;;;;;;;86.47;28.30;;;;;;;3.04;100.00;102325.16;7391902;19;20435;-57
2023/02/15 05:41:29;;;;;;;90.93;29.20;;;;;;;2.88;100.00;102329.50;7394768;19;20431;-51
2023/02/15 05:43:58;;;;;;;143.80;33.27;;;;;;;2.55;100.00;102319.56;7390541;19;20479;-56
2023/02/15 05:46:28;;;;;;;87.63;29.07;;;;;;;2.61;100.00;102328.56;7396140;19;20408;-54
2023/02/15 05:48:57;;;;;;;88.30;27.40;;;;;;;2.35;100.00;102334.50;7391742;19;20451;-54
2023/02/15 05:51:27;;;;;;;74.07;25.00;;;;;;;2.21;100.00;102340.75;7394561;19;20442;-51
2023/02/15 05:53:56;;;;;;;118.77;32.03;;;;;;;2.40;100.00;102343.50;7391781;19;20439;-51
2023/02/15 05:56:28;;;;;;;99.13;27.87;;;;;;;2.45;100.00;102336.34;7395315;19;20413;-55
2023/02/15 05:58:58;;;;;;;117.77;28.60;;;;;;;2.66;100.00;102335.03;7390844;19;20443;-55
2023/02/15 06:01:27;;;;;;;118.43;30.90;;;;;;;3.10;100.00;102338.50;7394492;19;21258;-52
2023/02/15 06:03:57;;;;;;;96.27;32.37;;;;;;;2.96;100.00;102332.03;7390404;19;20426;-53
2023/02/15 06:06:26;;;;;;;143.97;32.70;;;;;;;3.04;100.00;102340.44;7390542;19;20463;-59
2023/02/15 06:08:56;;;;;;;138.37;32.30;;;;;;;2.67;100.00;102341.94;7389627;19;20443;-59
2023/02/15 06:11:25;;;;;;;139.10;30.23;;;;;;;2.27;100.00;102352.44;7395044;19;20403;-60
2023/02/15 06:13:57;;;;;;;164.20;29.40;;;;;;;1.92;100.00;102353.97;7393441;19;20439;-60
2023/02/15 06:16:26;;;;;;;78.40;27.50;;;;;;;1.90;100.00;102358.91;7394232;19;21106;-60
2023/02/15 06:18:56;;;;;;;109.73;28.27;;;;;;;2.07;100.00;102372.47;7391083;19;21034;-58
2023/02/15 06:21:25;;;;;;;83.40;25.37;;;;;;;1.93;100.00;102359.22;7394868;19;20396;-59
2023/02/15 06:23:55;;;;;;;112.60;28.77;;;;;;;1.81;100.00;102363.06;7391004;19;20457;-55
2023/02/15 06:26:24;;;;;;;154.00;28.07;;;;;;;1.84;100.00;102369.34;7393383;19;20439;-59
2023/02/15 06:28:56;;;;;;;108.10;27.10;;;;;;;1.78;100.00;102375.47;7390480;19;20494;-59
2023/02/15 06:31:26;;;;;;;98.60;25.43;;;;;;;2.16;100.00;102363.22;7394116;19;20391;-60
2023/02/15 06:34:00;;;;;;;116.13;30.17;;;;;;;2.73;100.00;102360.38;7390786;19;20423;-55
2023/02/15 06:36:30;;;;;;;93.57;27.63;;;;;;;3.16;100.00;102360.22;7390559;19;20429;-54
2023/02/15 06:39:00;;;;;;;94.93;29.97;;;;;;;3.05;100.00;102355.00;7390510;19;20456;-59
2023/02/15 06:41:29;;;;;;;151.20;33.20;;;;;;;2.92;100.00;102341.81;7394286;19;20399;-57
2023/02/15 06:44:02;;;;;;;120.33;32.90;;;;;;;3.02;100.00;102343.59;7388974;19;20455;-56
2023/02/15 06:46:31;;;;;;;107.90;31.27;;;;;;;3.00;100.00;102346.00;7393355;19;20438;-59
2023/02/15 06:49:00;;;;;;;102.57;29.47;;;;;;;2.94;100.00;102342.84;7390163;19;20439;-59
2023/02/15 06:51:30;;;;;;;77.97;29.70;;;;;;;3.26;100.00;102347.63;7393731;19;20404;-57
2023/02/15 06:53:59;;;;;;;132.33;32.80;;;;;;;3.01;100.00;102351.97;7390173;19;20475;-57
2023/02/15 06:56:29;;;;;;;103.37;31.37;;;;;;;2.64;100.00;102355.25;7393187;19;20439;-58
2023/02/15 06:58:58;;;;;;;138.73;29.60;;;;;;;2.49;100.00;102358.81;7390137;19;20435;-58
2023/02/15 07:01:31;;;;;;;106.80;29.83;;;;;;;2.72;100.00;102360.22;7393860;19;20416;-53
2023/02/15 07:04:00;;;;;;;118.17;29.27;;;;;;;2.95;100.00;102363.41;7389405;19;20447;-58
2023/02/15 07:06:33;;;;;;;157.47;31.40;;;;;;;2.93;100.00;102366.53;7391163;19;20442;-59
2023/02/15 07:09:03;;;;;;;118.50;28.50;;;;;;;2.84;100.00;102374.19;7387700;19;20464;-57
2023/02/15 07:14:24;;;;;;;81.80;28.83;;;;;;;2.79;100.00;102366.09;7388956;19;20451;-57
2023/02/15 07:16:59;;;;;;;114.80;28.87;;;;;;;2.66;100.00;102363.06;7389785;19;20948;-57
2023/02/15 07:19:29;;;;;;;83.77;27.57;;;;;;;2.48;100.00;102368.13;7392878;19;20428;-59
2023/02/15 07:22:00;;;;;;;105.43;27.30;;;;;;;2.27;100.00;102367.72;7389946;19;20395;-57
2023/02/15 07:24:29;;;;;;;88.33;27.10;;;;;;;2.52;100.00;102365.13;7391464;19;20403;-58
2023/02/15 07:26:59;;;;;;;83.70;27.80;;;;;;;3.17;100.00;102369.72;7388573;19;20814;-57
2023/02/15 07:29:29;;;;;;;101.23;29.70;;;;;;;3.18;100.00;102379.16;7392226;19;20416;-55
2023/02/15 07:32:01;;;;;;;76.60;27.27;;;;;;;2.90;100.00;102374.78;7389290;19;20403;-56
2023/02/15 07:34:30;;;;;;;113.00;27.63;;;;;;;2.64;100.00;102382.38;7392808;19;20399;-56
2023/02/15 07:37:00;;;;;;;160.73;31.73;;;;;;;2.92;100.00;102372.41;7387824;19;20414;-57
2023/02/15 07:39:29;;;;;;;71.17;25.10;;;;;;;2.86;100.00;102371.78;7392131;19;20441;-59
2023/02/15 07:41:59;;;;;;;82.47;27.43;;;;;;;3.36;100.00;102368.19;7388122;19;20399;-56
2023/02/15 07:44:28;;;;;;;115.43;40.20;;;;;;;3.87;100.00;102358.47;7391681;19;20403;-59
2023/02/15 07:47:00;;;;;;;80.73;28.73;;;;;;;4.07;100.00;102365.47;7386760;19;20446;-59
2023/02/15 07:49:30;;;;;;;133.73;41.30;;;;;;;4.20;100.00;102375.16;7398663;19;20931;-58
2023/02/15 07:51:59;;;;;;;112.90;32.40;;;;;;;3.34;100.00;102379.88;7396138;19;20411;-56
2023/02/15 07:54:29;;;;;;;89.67;32.13;;;;;;;2.88;100.00;102390.69;7398420;19;20431;-58
2023/02/15 07:56:58;;;;;;;77.30;27.43;;;;;;;3.11;100.00;102392.94;7393745;19;20983;-59
2023/02/15 07:59:28;;;;;;;74.83;27.67;;;;;;;2.97;100.00;102401.78;7399031;19;20399;-60
2023/02/15 08:01:58;;;;;;;117.80;28.70;;;;;;;2.63;100.00;102400.97;7396112;19;20407;-58
2023/02/15 08:04:30;;;;;;;73.67;27.63;;;;;;;2.58;100.00;102399.59;7396999;19;20972;-55
2023/02/15 08:07:00;;;;;;;74.47;27.33;;;;;;;2.56;100.00;102400.38;7393552;19;20458;-56
2023/02/15 08:09:29;;;;;;;119.47;27.77;;;;;;;2.90;100.00;102396.81;7398418;19;20420;-57
2023/02/15 08:11:59;;;;;;;81.90;27.77;;;;;;;2.83;100.00;102391.13;7396270;19;20399;-58
2023/02/15 08:14:30;;;;;;;77.53;25.80;;;;;;;2.67;100.00;102400.56;7398711;19;20786;-55
2023/02/15 08:17:04;;;;;;;94.23;27.80;;;;;;;2.65;100.00;102395.28;7393999;19;20447;-59
2023/02/15 08:19:37;;;;;;;71.37;27.10;;;;;;;2.43;100.00;102394.78;7398468;19;20407;-56
2023/02/15 08:22:08;;;;;;;126.57;28.17;;;;;;;2.20;100.00;102385.69;7395221;19;20468;-55
2023/02/15 08:24:39;;;;;;;76.93;28.10;;;;;;;2.56;100.00;102382.53;7397259;19;20770;-60
2023/02/15 08:27:10;;;;;;;108.60;29.30;;;;;;;2.61;100.00;102384.66;7394214;19;20442;-58
2023/02/15 08:29:41;;;;;;;64.97;26.87;;;;;;;2.71;100.00;102382.25;7398562;19;20427;-59
2023/02/15 08:32:12;;;;;;;69.63;27.63;;;;;;;2.58;100.00;102384.31;7394451;19;20477;-58
2023/02/15 08:34:45;;;;;;;83.17;29.20;;;;;;;2.65;100.00;102373.97;7399817;19;20416;-56
2023/02/15 08:37:14;;;;;;;71.83;28.73;;;;;;;2.65;100.00;102376.53;7393030;19;20427;-58
2023/02/15 08:39:45;;;;;;;109.33;27.60;;;;;;;2.59;100.00;102366.63;7398272;19;20444;-59
2023/02/15 08:42:15;;;;;;;84.47;29.10;;;;;;;2.52;100.00;102370.22;7394906;19;20541;-58
2023/02/15 08:44:44;;;;;;;80.77;27.37;;;;;;;2.54;100.00;102378.94;7392507;19;20431;-57
2023/02/15 08:47:14;;;;;;;101.33;29.80;;;;;;;2.39;100.00;102367.19;7392335;19;20407;-58
2023/02/15 08:49:46;;;;;;;137.87;28.53;;;;;;;2.27;100.00;102369.41;7398061;19;20423;-58
2023/02/15 08:52:15;;;;;;;106.70;28.70;;;;;;;2.01;100.00;102375.28;7392148;19;20447;-58
2023/02/15 08:54:45;;;;;;;78.00;29.40;;;;;;;2.06;100.00;102366.47;7397963;19;20486;-58
2023/02/15 08:57:14;;;;;;;75.20;29.77;;;;;;;1.93;100.00;102366.84;7391253;19;20942;-55
2023/02/15 08:59:43;;;;;;;96.13;29.13;;;;;;;2.05;100.00;102356.13;7395401;19;20399;-57
2023/02/15 09:02:13;;;;;;;77.47;27.80;;;;;;;1.87;100.00;102348.41;7393372;19;20974;-56
2023/02/15 09:04:45;;;;;;;72.17;26.23;;;;;;;2.11;100.00;102351.66;7396143;19;20404;-57
2023/02/15 09:07:15;;;;;;;118.13;30.10;;;;;;;2.11;100.00;102341.47;7389817;19;20781;-58
2023/02/15 09:09:45;;;;;;;70.27;28.67;;;;;;;2.25;100.00;102336.13;7394834;19;20440;-60
2023/02/15 09:12:14;;;;;;;71.30;28.10;;;;;;;2.48;100.00;102331.53;7388161;19;20436;-60
2023/02/15 09:14:44;;;;;;;71.63;27.63;;;;;;;2.55;100.00;102318.66;7392848;19;20493;-55
2023/02/15 09:17:13;;;;;;;97.33;31.53;;;;;;;2.45;100.00;102316.84;7389950;19;20415;-59
2023/02/15 09:19:46;;;;;;;84.77;30.77;;;;;;;2.35;100.00;102309.94;7390871;19;21425;-58
2023/02/15 09:22:16;;;;;;;172.57;31.70;;;;;;;2.26;100.00;102309.91;7392765;19;20410;-59
2023/02/15 09:24:45;;;;;;;71.90;29.37;;;;;;;2.54;100.00;102307.56;7395443;19;20414;-57
2023/02/15 09:27:15;;;;;;;122.30;29.50;;;;;;;2.68;100.00;102300.38;7390581;19;20395;-59
2023/02/15 09:29:44;;;;;;;83.83;31.27;;;;;;;2.28;100.00;102307.50;7395880;19;20412;-57
2023/02/15 09:32:17;;;;;;;94.00;27.47;;;;;;;1.83;100.00;102310.66;7391690;19;20975;-57
2023/02/15 09:34:49;;;;;;;129.13;34.40;;;;;;;1.63;100.00;102312.06;7396241;19;20933;-56
2023/02/15 09:37:18;;;;;;;125.93;28.90;;;;;;;1.63;100.00;102301.88;7389371;19;20446;-58
2023/02/15 09:39:49;;;;;;;86.77;31.17;;;;;;;1.80;100.00;102303.59;7395161;19;20400;-57
2023/02/15 09:42:33;;;;;;;80.90;28.90;;;;;;;2.01;100.00;102297.25;7389095;19;20415;-58
2023/02/15 09:45:22;;;;;;;89.67;31.03;;;;;;;2.19;100.00;102286.22;7395071;19;20418;-55
2023/02/15 09:48:09;;;;;;;237.30;36.03;;;;;;;2.17;100.00;102283.53;7393370;19;20566;-57
2023/02/15 09:50:53;;;;;;;122.43;32.03;;;;;;;2.19;100.00;102273.50;7396186;19;20408;-55
2023/02/15 09:53:32;;;;;;;149.13;32.40;;;;;;;2.04;100.00;102276.28;7390752;19;20450;-54
2023/02/15 09:56:06;;;;;;;100.00;29.97;;;;;;;2.22;100.00;102267.06;7394950;19;20533;-59
2023/02/15 09:58:43;;;;;;;85.43;31.00;;;;;;;2.29;100.00;102268.56;7391775;19;20979;-57
2023/02/15 10:01:19;;;;;;;112.60;33.20;;;;;;;2.21;100.00;102265.22;7395808;19;20404;-59
2023/02/15 10:03:59;;;;;;;94.30;31.77;;;;;;;1.96;100.00;102274.63;7392486;19;20439;-53
2023/02/15 10:06:41;;;;;;;92.30;30.33;;;;;;;2.06;100.00;102268.81;7393652;19;20435;-54
2023/02/15 10:09:30;;;;;;;156.93;37.13;;;;;;;2.17;100.00;102265.69;7391078;19;20443;-56
2023/02/15 10:12:11;;;;;;;95.03;36.67;;;;;;;2.82;100.00;102269.50;7392114;19;20407;-53
2023/02/15 10:14:58;;;;;;;119.00;40.63;;;;;;;4.03;100.00;102256.06;7395266;19;20403;-58
2023/02/15 10:17:39;;;;;;;111.10;42.87;;;;;;;4.10;100.00;102263.53;7389754;19;20434;-55
2023/02/15 10:20:17;;;;;;;126.53;50.33;;;;;;;3.22;100.00;102271.53;7393778;19;20410;-57
2023/02/15 10:23:03;;;;;;;143.47;56.20;;;;;;;3.26;100.00;102273.63;7390247;19;20450;-55
2023/02/15 10:25:40;;;;;;;76.93;32.13;;;;;;;2.95;100.00;102286.91;7393731;19;20947;-53
2023/02/15 10:28:16;;;;;;;91.50;34.20;;;;;;;2.67;100.00;102290.94;7388296;19;20442;-56
2023/02/15 10:30:50;;;;;;;93.80;37.40;;;;;;;2.73;100.00;102289.00;7392690;19;20939;-54
2023/02/15 10:33:33;;;;;;;86.20;33.93;;;;;;;2.37;100.00;102293.13;7390571;19;21176;-56
2023/02/15 10:36:12;;;;;;;96.13;34.73;;;;;;;2.31;100.00;102301.81;7393048;19;20979;-57
2023/02/15 10:38:45;;;;;;;101.37;34.33;;;;;;;2.06;100.00;102305.38;7390308;19;20994;-56
2023/02/15 10:41:25;;;;;;;94.07;35.23;;;;;;;2.20;100.00;102294.00;7393957;19;20965;-61
2023/02/15 10:44:06;;;;;;;91.33;34.33;;;;;;;2.34;100.00;102287.75;7390114;19;20482;-54
2023/02/15 10:46:53;;;;;;;102.50;36.57;;;;;;;2.47;100.00;102282.25;7392517;19;20450;-56
2023/02/15 10:49:49;;;;;;;107.53;37.23;;;;;;;2.34;100.00;102281.75;7392356;19;20455;-50
2023/02/15 10:52:30;;;;;;;96.40;35.97;;;;;;;2.28;100.00;102285.50;7389365;19;20432;-55
2023/02/15 10:55:09;;;;;;;83.40;33.50;;;;;;;2.21;100.00;102275.41;7393344;19;20403;-57
2023/02/15 10:57:47;;;;;;;91.53;33.53;;;;;;;2.06;100.00;102273.91;7388362;19;20417;-55
2023/02/15 11:00:22;;;;;;;88.70;34.60;;;;;;;1.98;100.00;102275.66;7391375;19;20403;-55
2023/02/15 11:03:05;;;;;;;86.23;31.50;;;;;;;1.98;100.00;102281.66;7390449;19;20472;-55
2023/02/15 11:05:42;;;;;;;93.97;31.70;;;;;;;1.95;100.00;102271.16;7392203;19;21129;-57
2023/02/15 11:08:12;;;;;;;84.67;32.80;;;;;;;2.06;100.00;102258.63;7389615;19;20771;-56
2023/02/15 11:10:47;;;;;;;82.90;33.47;;;;;;;2.34;100.00;102261.34;7392352;19;20424;-56
2023/02/15 11:13:19;;;;;;;93.80;35.70;;;;;;;2.29;100.00;102264.38;7389847;19;20511;-52
2023/02/15 11:15:52;;;;;;;83.37;32.50;;;;;;;2.18;100.00;102262.41;7392501;19;20419;-55
2023/02/15 11:18:26;;;;;;;97.20;36.23;;;;;;;2.33;100.00;102251.91;7389219;19;20454;-54
2023/02/15 11:20:58;;;;;;;94.63;35.10;;;;;;;2.58;100.00;102249.25;7393014;19;20434;-52
2023/02/15 11:23:29;;;;;;;101.70;35.93;;;;;;;2.59;100.00;102251.03;7395328;19;20800;-54
2023/02/15 11:26:04;;;;;;;90.70;35.47;;;;;;;2.76;100.00;102238.31;7399397;19;20442;-57
2023/02/15 11:28:37;;;;;;;89.43;36.70;;;;;;;2.83;100.00;102245.78;7397139;19;20442;-57
2023/02/15 11:31:16;;;;;;;94.60;36.43;;;;;;;2.84;100.00;102237.38;7399812;19;20411;-57
2023/02/15 11:33:49;;;;;;;93.27;38.00;;;;;;;2.93;100.00;102237.38;7397546;19;20425;-57
2023/02/15 11:36:21;;;;;;;91.93;37.97;;;;;;;3.01;100.00;102230.47;7396847;19;20456;-58
2023/02/15 11:38:54;;;;;;;87.83;35.80;;;;;;;2.74;100.00;102229.63;7396641;19;20447;-56
2023/02/15 11:41:31;;;;;;;83.53;35.40;;;;;;;2.65;100.00;102233.81;7399724;19;21293;-52
2023/02/15 11:44:03;;;;;;;95.67;35.40;;;;;;;2.80;100.00;102220.00;7396637;19;20832;-54
2023/02/15 11:46:32;;;;;;;99.40;40.23;;;;;;;2.96;100.00;102226.56;7397866;19;20434;-55
2023/02/15 11:49:02;;;;;;;97.97;37.37;;;;;;;3.02;100.00;102216.97;7395313;19;20443;-57
2023/02/15 11:51:32;;;;;;;94.57;36.83;;;;;;;3.21;100.00;102218.72;7400026;19;20396;-59
2023/02/15 11:54:02;;;;;;;96.77;39.67;;;;;;;3.63;100.00;102214.97;7396710;19;20443;-56